Terminal Aerodrome Forecast
Issued by NWS

Home | Current Version | Previous Version | Text Only | Print | Product List | Glossary On
Versions: 1 2 3 4 5 6 7 8 9 10 11 12 13 14 15
000
FTUS43 KIND 221446 AAA
TAFHUF
TAF AMD
KHUF 221446Z 2215/2312 32012KT P6SM BKN020
     FM221530 27008KT 6SM -SHRA VCTS BKN025CB BKN040
     FM221700 23010KT P6SM FEW050 SCT200
     FM222300 22010KT P6SM VCTS FEW050CB FEW200
     FM230000 22008KT P6SM -SHRA VCTS FEW050CB BKN090
     FM230300 21006KT P6SM -SHRA VCTS BKN090CB
     FM230600 23005KT P6SM BKN250=

USA.gov is the U.S. government's official web portal to all federal, state and local government web resources and services.